sensor_id;sensor_type;location;lat;lon;timestamp;P1;durP1;ratioP1;P2;durP2;ratioP2
56114;SDS011;41988;53.020;6.576;2022-09-16T00:01:37;0.73;;;0.60;;
56114;SDS011;41988;53.020;6.576;2022-09-16T00:04:22;0.85;;;0.68;;
56114;SDS011;41988;53.020;6.576;2022-09-16T00:07:06;0.65;;;0.60;;
56114;SDS011;41988;53.020;6.576;2022-09-16T00:09:50;1.92;;;1.02;;
56114;SDS011;41988;53.020;6.576;2022-09-16T00:12:35;0.70;;;0.70;;
56114;SDS011;41988;53.020;6.576;2022-09-16T00:15:19;0.73;;;0.60;;
56114;SDS011;41988;53.020;6.576;2022-09-16T00:18:04;0.65;;;0.60;;
56114;SDS011;41988;53.020;6.576;2022-09-16T00:20:49;0.93;;;0.60;;
56114;SDS011;41988;53.020;6.576;2022-09-16T00:23:34;0.40;;;0.40;;
56114;SDS011;41988;53.020;6.576;2022-09-16T00:26:19;1.20;;;0.60;;
56114;SDS011;41988;53.020;6.576;2022-09-16T00:29:04;0.75;;;0.60;;
56114;SDS011;41988;53.020;6.576;2022-09-16T00:31:48;3.25;;;0.60;;
56114;SDS011;41988;53.020;6.576;2022-09-16T00:34:33;2.45;;;0.60;;
56114;SDS011;41988;53.020;6.576;2022-09-16T00:37:18;0.60;;;0.60;;
56114;SDS011;41988;53.020;6.576;2022-09-16T00:40:02;1.35;;;0.80;;
56114;SDS011;41988;53.020;6.576;2022-09-16T00:42:47;3.80;;;0.70;;
56114;SDS011;41988;53.020;6.576;2022-09-16T00:45:32;0.50;;;0.50;;
56114;SDS011;41988;53.020;6.576;2022-09-16T00:48:20;2.25;;;0.60;;
56114;SDS011;41988;53.020;6.576;2022-09-16T00:51:06;0.85;;;0.60;;
56114;SDS011;41988;53.020;6.576;2022-09-16T00:53:54;0.88;;;0.60;;
56114;SDS011;41988;53.020;6.576;2022-09-16T00:56:40;0.90;;;0.60;;
56114;SDS011;41988;53.020;6.576;2022-09-16T00:59:27;2.00;;;0.60;;
56114;SDS011;41988;53.020;6.576;2022-09-16T01:02:14;0.57;;;0.55;;
56114;SDS011;41988;53.020;6.576;2022-09-16T01:05:02;0.50;;;0.50;;
56114;SDS011;41988;53.020;6.576;2022-09-16T01:07:47;0.40;;;0.40;;
56114;SDS011;41988;53.020;6.576;2022-09-16T01:10:32;0.52;;;0.50;;
56114;SDS011;41988;53.020;6.576;2022-09-16T01:13:17;2.00;;;0.80;;
56114;SDS011;41988;53.020;6.576;2022-09-16T01:16:13;0.73;;;0.60;;
56114;SDS011;41988;53.020;6.576;2022-09-16T01:19:05;1.58;;;0.70;;
56114;SDS011;41988;53.020;6.576;2022-09-16T01:22:07;0.50;;;0.50;;
56114;SDS011;41988;53.020;6.576;2022-09-16T01:37:30;2.28;;;0.80;;
56114;SDS011;41988;53.020;6.576;2022-09-16T01:40:20;1.67;;;0.70;;
56114;SDS011;41988;53.020;6.576;2022-09-16T01:43:21;1.67;;;0.73;;
56114;SDS011;41988;53.020;6.576;2022-09-16T01:51:42;1.05;;;0.60;;
56114;SDS011;41988;53.020;6.576;2022-09-16T01:54:46;1.55;;;0.85;;
56114;SDS011;41988;53.020;6.576;2022-09-16T02:00:17;1.35;;;0.80;;
56114;SDS011;41988;53.020;6.576;2022-09-16T02:03:12;3.33;;;0.88;;
56114;SDS011;41988;53.020;6.576;2022-09-16T02:06:08;2.58;;;0.90;;
56114;SDS011;41988;53.020;6.576;2022-09-16T02:08:58;3.92;;;1.08;;
56114;SDS011;41988;53.020;6.576;2022-09-16T02:11:45;6.82;;;1.48;;
56114;SDS011;41988;53.020;6.576;2022-09-16T02:14:35;3.15;;;0.98;;
56114;SDS011;41988;53.020;6.576;2022-09-16T02:17:22;3.60;;;1.00;;
56114;SDS011;41988;53.020;6.576;2022-09-16T02:20:08;3.47;;;1.10;;
56114;SDS011;41988;53.020;6.576;2022-09-16T02:22:57;2.13;;;1.10;;
56114;SDS011;41988;53.020;6.576;2022-09-16T02:25:44;9.52;;;1.40;;
56114;SDS011;41988;53.020;6.576;2022-09-16T02:28:31;4.10;;;1.10;;
56114;SDS011;41988;53.020;6.576;2022-09-16T02:31:16;4.97;;;1.40;;
56114;SDS011;41988;53.020;6.576;2022-09-16T02:34:06;9.50;;;1.63;;
56114;SDS011;41988;53.020;6.576;2022-09-16T02:36:54;6.82;;;2.05;;
56114;SDS011;41988;53.020;6.576;2022-09-16T02:39:40;7.32;;;1.52;;
56114;SDS011;41988;53.020;6.576;2022-09-16T02:42:27;7.18;;;1.77;;
56114;SDS011;41988;53.020;6.576;2022-09-16T02:45:12;9.88;;;2.33;;
56114;SDS011;41988;53.020;6.576;2022-09-16T02:48:01;5.43;;;1.65;;
56114;SDS011;41988;53.020;6.576;2022-09-16T02:53:46;5.68;;;1.55;;
56114;SDS011;41988;53.020;6.576;2022-09-16T02:56:33;4.90;;;1.60;;
56114;SDS011;41988;53.020;6.576;2022-09-16T02:59:19;4.95;;;1.25;;
56114;SDS011;41988;53.020;6.576;2022-09-16T03:02:03;4.30;;;1.05;;
56114;SDS011;41988;53.020;6.576;2022-09-16T03:04:48;6.30;;;1.25;;
56114;SDS011;41988;53.020;6.576;2022-09-16T03:07:32;3.00;;;1.10;;
56114;SDS011;41988;53.020;6.576;2022-09-16T03:10:17;5.75;;;1.48;;
56114;SDS011;41988;53.020;6.576;2022-09-16T03:13:08;3.35;;;1.35;;
56114;SDS011;41988;53.020;6.576;2022-09-16T03:16:11;5.72;;;1.88;;
56114;SDS011;41988;53.020;6.576;2022-09-16T03:19:10;3.28;;;1.00;;
56114;SDS011;41988;53.020;6.576;2022-09-16T03:22:17;5.30;;;1.48;;
56114;SDS011;41988;53.020;6.576;2022-09-16T03:25:21;6.75;;;1.17;;
56114;SDS011;41988;53.020;6.576;2022-09-16T03:28:12;3.45;;;1.00;;
56114;SDS011;41988;53.020;6.576;2022-09-16T03:36:34;2.67;;;1.27;;
56114;SDS011;41988;53.020;6.576;2022-09-16T03:39:19;3.30;;;0.98;;
56114;SDS011;41988;53.020;6.576;2022-09-16T03:42:05;6.53;;;1.27;;
56114;SDS011;41988;53.020;6.576;2022-09-16T03:44:50;4.32;;;1.00;;
56114;SDS011;41988;53.020;6.576;2022-09-16T03:47:35;2.25;;;1.15;;
56114;SDS011;41988;53.020;6.576;2022-09-16T03:50:20;2.92;;;1.20;;
56114;SDS011;41988;53.020;6.576;2022-09-16T03:53:04;2.17;;;1.40;;
56114;SDS011;41988;53.020;6.576;2022-09-16T03:55:49;2.13;;;0.98;;
56114;SDS011;41988;53.020;6.576;2022-09-16T03:58:34;3.90;;;1.13;;
56114;SDS011;41988;53.020;6.576;2022-09-16T04:01:18;2.38;;;1.42;;
56114;SDS011;41988;53.020;6.576;2022-09-16T04:04:04;1.85;;;1.02;;
56114;SDS011;41988;53.020;6.576;2022-09-16T04:06:48;2.58;;;0.95;;
56114;SDS011;41988;53.020;6.576;2022-09-16T04:09:33;0.68;;;0.60;;
56114;SDS011;41988;53.020;6.576;2022-09-16T04:12:19;1.55;;;0.75;;
56114;SDS011;41988;53.020;6.576;2022-09-16T04:15:04;1.95;;;0.82;;
56114;SDS011;41988;53.020;6.576;2022-09-16T04:17:49;1.10;;;0.65;;
56114;SDS011;41988;53.020;6.576;2022-09-16T04:20:34;0.93;;;0.60;;
56114;SDS011;41988;53.020;6.576;2022-09-16T04:23:18;1.25;;;0.65;;
56114;SDS011;41988;53.020;6.576;2022-09-16T04:26:03;0.52;;;0.52;;
56114;SDS011;41988;53.020;6.576;2022-09-16T04:28:47;1.17;;;0.70;;
56114;SDS011;41988;53.020;6.576;2022-09-16T04:31:31;0.82;;;0.60;;
56114;SDS011;41988;53.020;6.576;2022-09-16T04:34:16;0.70;;;0.60;;
56114;SDS011;41988;53.020;6.576;2022-09-16T04:37:00;0.60;;;0.60;;
56114;SDS011;41988;53.020;6.576;2022-09-16T04:39:45;0.52;;;0.47;;
56114;SDS011;41988;53.020;6.576;2022-09-16T04:42:29;0.50;;;0.50;;
56114;SDS011;41988;53.020;6.576;2022-09-16T04:45:14;1.23;;;0.60;;
56114;SDS011;41988;53.020;6.576;2022-09-16T04:47:58;0.50;;;0.50;;
56114;SDS011;41988;53.020;6.576;2022-09-16T04:50:43;0.55;;;0.55;;
56114;SDS011;41988;53.020;6.576;2022-09-16T04:53:27;0.60;;;0.60;;
56114;SDS011;41988;53.020;6.576;2022-09-16T04:56:16;0.50;;;0.50;;
56114;SDS011;41988;53.020;6.576;2022-09-16T04:59:02;0.70;;;0.50;;
56114;SDS011;41988;53.020;6.576;2022-09-16T05:01:47;0.50;;;0.50;;
56114;SDS011;41988;53.020;6.576;2022-09-16T05:04:31;0.50;;;0.50;;
56114;SDS011;41988;53.020;6.576;2022-09-16T05:07:16;1.75;;;0.80;;
56114;SDS011;41988;53.020;6.576;2022-09-16T05:10:00;0.52;;;0.52;;
56114;SDS011;41988;53.020;6.576;2022-09-16T05:12:49;0.55;;;0.55;;
56114;SDS011;41988;53.020;6.576;2022-09-16T05:15:34;0.50;;;0.50;;
56114;SDS011;41988;53.020;6.576;2022-09-16T05:18:18;0.55;;;0.50;;
56114;SDS011;41988;53.020;6.576;2022-09-16T05:21:04;0.40;;;0.40;;
56114;SDS011;41988;53.020;6.576;2022-09-16T05:23:52;3.20;;;0.73;;
56114;SDS011;41988;53.020;6.576;2022-09-16T05:26:38;0.40;;;0.40;;
56114;SDS011;41988;53.020;6.576;2022-09-16T05:29:27;0.50;;;0.50;;
56114;SDS011;41988;53.020;6.576;2022-09-16T05:32:11;1.17;;;0.68;;
56114;SDS011;41988;53.020;6.576;2022-09-16T05:34:56;0.50;;;0.50;;
56114;SDS011;41988;53.020;6.576;2022-09-16T05:37:41;0.40;;;0.40;;
56114;SDS011;41988;53.020;6.576;2022-09-16T05:40:26;1.00;;;0.57;;
56114;SDS011;41988;53.020;6.576;2022-09-16T05:43:11;0.50;;;0.50;;
56114;SDS011;41988;53.020;6.576;2022-09-16T05:45:56;1.38;;;0.50;;
56114;SDS011;41988;53.020;6.576;2022-09-16T05:48:40;0.85;;;0.65;;
56114;SDS011;41988;53.020;6.576;2022-09-16T05:51:26;0.73;;;0.40;;
56114;SDS011;41988;53.020;6.576;2022-09-16T05:54:10;1.17;;;0.50;;
56114;SDS011;41988;53.020;6.576;2022-09-16T05:56:55;0.60;;;0.60;;
56114;SDS011;41988;53.020;6.576;2022-09-16T05:59:40;0.57;;;0.57;;
56114;SDS011;41988;53.020;6.576;2022-09-16T06:02:25;1.20;;;0.50;;
56114;SDS011;41988;53.020;6.576;2022-09-16T06:05:09;0.43;;;0.43;;
56114;SDS011;41988;53.020;6.576;2022-09-16T06:07:55;0.50;;;0.50;;
56114;SDS011;41988;53.020;6.576;2022-09-16T06:10:40;0.85;;;0.70;;
56114;SDS011;41988;53.020;6.576;2022-09-16T06:13:25;0.55;;;0.50;;
56114;SDS011;41988;53.020;6.576;2022-09-16T06:16:10;0.50;;;0.50;;
56114;SDS011;41988;53.020;6.576;2022-09-16T06:18:57;0.65;;;0.65;;
56114;SDS011;41988;53.020;6.576;2022-09-16T06:21:45;0.50;;;0.50;;
56114;SDS011;41988;53.020;6.576;2022-09-16T06:24:30;0.40;;;0.40;;
56114;SDS011;41988;53.020;6.576;2022-09-16T06:27:15;0.75;;;0.50;;
56114;SDS011;41988;53.020;6.576;2022-09-16T06:29:59;1.08;;;0.75;;
56114;SDS011;41988;53.020;6.576;2022-09-16T06:32:44;1.08;;;0.77;;
56114;SDS011;41988;53.020;6.576;2022-09-16T06:35:29;1.42;;;0.75;;
56114;SDS011;41988;53.020;6.576;2022-09-16T06:38:13;1.95;;;0.95;;
56114;SDS011;41988;53.020;6.576;2022-09-16T06:41:02;1.73;;;0.70;;
56114;SDS011;41988;53.020;6.576;2022-09-16T06:43:47;2.78;;;0.70;;
56114;SDS011;41988;53.020;6.576;2022-09-16T06:46:34;0.93;;;0.70;;
56114;SDS011;41988;53.020;6.576;2022-09-16T06:49:18;1.25;;;0.77;;
56114;SDS011;41988;53.020;6.576;2022-09-16T06:52:02;1.48;;;0.88;;
56114;SDS011;41988;53.020;6.576;2022-09-16T06:54:47;0.68;;;0.63;;
56114;SDS011;41988;53.020;6.576;2022-09-16T06:57:33;1.00;;;0.63;;
56114;SDS011;41988;53.020;6.576;2022-09-16T07:00:18;2.65;;;0.73;;
56114;SDS011;41988;53.020;6.576;2022-09-16T07:03:02;2.25;;;1.13;;
56114;SDS011;41988;53.020;6.576;2022-09-16T07:05:54;4.00;;;0.70;;
56114;SDS011;41988;53.020;6.576;2022-09-16T07:08:40;10.07;;;1.38;;
56114;SDS011;41988;53.020;6.576;2022-09-16T07:11:25;3.13;;;0.63;;
56114;SDS011;41988;53.020;6.576;2022-09-16T07:14:09;2.83;;;0.82;;
56114;SDS011;41988;53.020;6.576;2022-09-16T07:16:54;1.95;;;0.80;;
56114;SDS011;41988;53.020;6.576;2022-09-16T07:19:38;1.20;;;0.75;;
56114;SDS011;41988;53.020;6.576;2022-09-16T07:22:24;1.00;;;0.75;;
56114;SDS011;41988;53.020;6.576;2022-09-16T07:25:09;1.30;;;0.90;;
56114;SDS011;41988;53.020;6.576;2022-09-16T07:27:53;2.22;;;0.80;;
56114;SDS011;41988;53.020;6.576;2022-09-16T07:30:38;0.68;;;0.60;;
56114;SDS011;41988;53.020;6.576;2022-09-16T07:33:23;2.67;;;0.70;;
56114;SDS011;41988;53.020;6.576;2022-09-16T07:36:08;2.35;;;0.90;;
56114;SDS011;41988;53.020;6.576;2022-09-16T07:38:54;4.53;;;1.17;;
56114;SDS011;41988;53.020;6.576;2022-09-16T07:41:41;1.65;;;0.90;;
56114;SDS011;41988;53.020;6.576;2022-09-16T07:44:26;2.88;;;1.00;;
56114;SDS011;41988;53.020;6.576;2022-09-16T07:47:11;2.80;;;1.10;;
56114;SDS011;41988;53.020;6.576;2022-09-16T07:49:55;0.70;;;0.70;;
56114;SDS011;41988;53.020;6.576;2022-09-16T07:52:40;1.25;;;0.73;;
56114;SDS011;41988;53.020;6.576;2022-09-16T07:55:25;0.88;;;0.50;;
56114;SDS011;41988;53.020;6.576;2022-09-16T07:58:11;0.95;;;0.60;;
56114;SDS011;41988;53.020;6.576;2022-09-16T08:00:56;1.67;;;0.93;;
56114;SDS011;41988;53.020;6.576;2022-09-16T08:03:41;1.98;;;0.70;;
56114;SDS011;41988;53.020;6.576;2022-09-16T08:06:27;0.75;;;0.60;;
56114;SDS011;41988;53.020;6.576;2022-09-16T08:09:15;1.25;;;1.15;;
56114;SDS011;41988;53.020;6.576;2022-09-16T08:12:00;0.73;;;0.60;;
56114;SDS011;41988;53.020;6.576;2022-09-16T08:14:48;1.58;;;0.90;;
56114;SDS011;41988;53.020;6.576;2022-09-16T08:17:32;1.50;;;0.90;;
56114;SDS011;41988;53.020;6.576;2022-09-16T08:20:17;1.38;;;0.80;;
56114;SDS011;41988;53.020;6.576;2022-09-16T08:23:01;4.22;;;1.00;;
56114;SDS011;41988;53.020;6.576;2022-09-16T08:25:46;2.63;;;0.90;;
56114;SDS011;41988;53.020;6.576;2022-09-16T08:28:33;1.50;;;0.80;;
56114;SDS011;41988;53.020;6.576;2022-09-16T08:31:18;1.05;;;0.70;;
56114;SDS011;41988;53.020;6.576;2022-09-16T08:34:05;0.73;;;0.60;;
56114;SDS011;41988;53.020;6.576;2022-09-16T08:36:49;1.50;;;0.60;;
56114;SDS011;41988;53.020;6.576;2022-09-16T08:39:34;1.15;;;0.85;;
56114;SDS011;41988;53.020;6.576;2022-09-16T08:45:14;1.10;;;0.60;;
56114;SDS011;41988;53.020;6.576;2022-09-16T08:50:51;2.17;;;0.77;;
56114;SDS011;41988;53.020;6.576;2022-09-16T08:54:22;2.78;;;0.75;;
56114;SDS011;41988;53.020;6.576;2022-09-16T08:56:44;1.67;;;0.70;;
56114;SDS011;41988;53.020;6.576;2022-09-16T08:59:34;0.88;;;0.75;;
56114;SDS011;41988;53.020;6.576;2022-09-16T09:02:27;3.25;;;0.70;;
56114;SDS011;41988;53.020;6.576;2022-09-16T09:05:18;4.03;;;0.90;;
56114;SDS011;41988;53.020;6.576;2022-09-16T09:11:09;1.55;;;0.80;;
56114;SDS011;41988;53.020;6.576;2022-09-16T09:14:15;1.38;;;0.77;;
56114;SDS011;41988;53.020;6.576;2022-09-16T09:17:09;2.20;;;0.65;;
56114;SDS011;41988;53.020;6.576;2022-09-16T09:35:01;1.15;;;0.60;;
56114;SDS011;41988;53.020;6.576;2022-09-16T09:37:58;3.08;;;0.70;;
56114;SDS011;41988;53.020;6.576;2022-09-16T09:40:49;2.83;;;0.70;;
56114;SDS011;41988;53.020;6.576;2022-09-16T09:43:50;0.95;;;0.60;;
56114;SDS011;41988;53.020;6.576;2022-09-16T09:46:39;2.05;;;0.73;;
56114;SDS011;41988;53.020;6.576;2022-09-16T09:55:22;0.70;;;0.40;;
56114;SDS011;41988;53.020;6.576;2022-09-16T09:58:16;2.40;;;0.60;;
56114;SDS011;41988;53.020;6.576;2022-09-16T10:01:07;2.80;;;0.60;;
56114;SDS011;41988;53.020;6.576;2022-09-16T10:03:52;1.88;;;0.65;;
56114;SDS011;41988;53.020;6.576;2022-09-16T10:06:38;0.88;;;0.60;;
56114;SDS011;41988;53.020;6.576;2022-09-16T10:09:24;4.15;;;0.68;;
56114;SDS011;41988;53.020;6.576;2022-09-16T10:12:09;2.35;;;0.98;;
56114;SDS011;41988;53.020;6.576;2022-09-16T10:14:53;4.13;;;0.88;;
56114;SDS011;41988;53.020;6.576;2022-09-16T10:17:38;1.23;;;0.57;;
56114;SDS011;41988;53.020;6.576;2022-09-16T10:20:29;3.25;;;0.90;;
56114;SDS011;41988;53.020;6.576;2022-09-16T10:23:19;1.20;;;0.57;;
56114;SDS011;41988;53.020;6.576;2022-09-16T10:29:12;7.07;;;0.80;;
56114;SDS011;41988;53.020;6.576;2022-09-16T10:31:59;1.08;;;0.70;;
56114;SDS011;41988;53.020;6.576;2022-09-16T10:34:46;3.13;;;0.73;;
56114;SDS011;41988;53.020;6.576;2022-09-16T10:37:31;1.80;;;0.68;;
56114;SDS011;41988;53.020;6.576;2022-09-16T10:40:15;1.48;;;0.98;;
56114;SDS011;41988;53.020;6.576;2022-09-16T10:43:02;2.63;;;1.17;;
56114;SDS011;41988;53.020;6.576;2022-09-16T10:45:48;1.08;;;0.60;;
56114;SDS011;41988;53.020;6.576;2022-09-16T10:48:34;0.65;;;0.50;;
56114;SDS011;41988;53.020;6.576;2022-09-16T10:51:24;1.92;;;0.60;;
56114;SDS011;41988;53.020;6.576;2022-09-16T10:54:09;1.65;;;0.70;;
56114;SDS011;41988;53.020;6.576;2022-09-16T11:00:12;3.92;;;0.85;;
56114;SDS011;41988;53.020;6.576;2022-09-16T11:20:44;0.63;;;0.52;;
56114;SDS011;41988;53.020;6.576;2022-09-16T11:38:21;1.55;;;0.70;;
56114;SDS011;41988;53.020;6.576;2022-09-16T12:01:14;0.95;;;0.60;;
56114;SDS011;41988;53.020;6.576;2022-09-16T12:04:09;3.15;;;0.82;;
56114;SDS011;41988;53.020;6.576;2022-09-16T12:13:03;0.60;;;0.60;;
56114;SDS011;41988;53.020;6.576;2022-09-16T12:15:55;3.63;;;0.77;;
56114;SDS011;41988;53.020;6.576;2022-09-16T12:18:42;3.45;;;0.88;;
56114;SDS011;41988;53.020;6.576;2022-09-16T12:21:33;4.82;;;0.88;;
56114;SDS011;41988;53.020;6.576;2022-09-16T12:27:34;3.17;;;0.88;;
56114;SDS011;41988;53.020;6.576;2022-09-16T12:30:21;2.90;;;0.80;;
56114;SDS011;41988;53.020;6.576;2022-09-16T12:33:13;2.38;;;0.80;;
56114;SDS011;41988;53.020;6.576;2022-09-16T12:36:04;1.27;;;0.60;;
56114;SDS011;41988;53.020;6.576;2022-09-16T12:38:50;2.85;;;0.82;;
56114;SDS011;41988;53.020;6.576;2022-09-16T12:41:47;2.53;;;0.55;;
56114;SDS011;41988;53.020;6.576;2022-09-16T12:44:40;1.80;;;0.70;;
56114;SDS011;41988;53.020;6.576;2022-09-16T12:50:27;2.88;;;1.00;;
56114;SDS011;41988;53.020;6.576;2022-09-16T12:54:30;2.33;;;0.80;;
56114;SDS011;41988;53.020;6.576;2022-09-16T13:03:03;2.08;;;0.90;;
56114;SDS011;41988;53.020;6.576;2022-09-16T13:05:50;5.93;;;1.27;;
56114;SDS011;41988;53.020;6.576;2022-09-16T13:08:36;5.47;;;1.02;;
56114;SDS011;41988;53.020;6.576;2022-09-16T13:11:25;4.43;;;1.10;;
56114;SDS011;41988;53.020;6.576;2022-09-16T13:14:21;4.00;;;1.10;;
56114;SDS011;41988;53.020;6.576;2022-09-16T13:17:25;3.92;;;1.40;;
56114;SDS011;41988;53.020;6.576;2022-09-16T13:20:32;9.25;;;1.80;;
56114;SDS011;41988;53.020;6.576;2022-09-16T13:23:33;3.33;;;0.90;;
56114;SDS011;41988;53.020;6.576;2022-09-16T13:26:40;2.22;;;0.85;;
56114;SDS011;41988;53.020;6.576;2022-09-16T13:39:13;4.57;;;0.90;;
56114;SDS011;41988;53.020;6.576;2022-09-16T13:42:08;1.08;;;0.60;;
56114;SDS011;41988;53.020;6.576;2022-09-16T13:44:59;1.58;;;0.63;;
56114;SDS011;41988;53.020;6.576;2022-09-16T13:47:47;2.88;;;0.70;;
56114;SDS011;41988;53.020;6.576;2022-09-16T13:50:55;1.05;;;0.70;;
56114;SDS011;41988;53.020;6.576;2022-09-16T13:53:56;2.63;;;1.13;;
56114;SDS011;41988;53.020;6.576;2022-09-16T13:56:54;1.23;;;0.68;;
56114;SDS011;41988;53.020;6.576;2022-09-16T14:03:21;2.78;;;1.10;;
56114;SDS011;41988;53.020;6.576;2022-09-16T14:06:11;2.10;;;0.60;;
56114;SDS011;41988;53.020;6.576;2022-09-16T14:11:56;2.50;;;0.87;;
56114;SDS011;41988;53.020;6.576;2022-09-16T14:14:46;1.75;;;0.95;;
56114;SDS011;41988;53.020;6.576;2022-09-16T14:17:32;1.13;;;0.60;;
56114;SDS011;41988;53.020;6.576;2022-09-16T14:20:20;2.28;;;0.80;;
56114;SDS011;41988;53.020;6.576;2022-09-16T14:23:15;3.50;;;1.15;;
56114;SDS011;41988;53.020;6.576;2022-09-16T14:26:14;1.17;;;0.77;;
56114;SDS011;41988;53.020;6.576;2022-09-16T14:29:00;4.28;;;0.95;;
56114;SDS011;41988;53.020;6.576;2022-09-16T14:31:46;2.47;;;0.82;;
56114;SDS011;41988;53.020;6.576;2022-09-16T14:34:34;4.65;;;1.30;;
56114;SDS011;41988;53.020;6.576;2022-09-16T14:37:20;2.65;;;0.82;;
56114;SDS011;41988;53.020;6.576;2022-09-16T14:40:08;6.65;;;1.75;;
56114;SDS011;41988;53.020;6.576;2022-09-16T14:43:00;3.33;;;0.80;;
56114;SDS011;41988;53.020;6.576;2022-09-16T14:45:55;1.52;;;0.70;;
56114;SDS011;41988;53.020;6.576;2022-09-16T14:48:49;1.63;;;0.70;;
56114;SDS011;41988;53.020;6.576;2022-09-16T14:51:45;1.70;;;0.85;;
56114;SDS011;41988;53.020;6.576;2022-09-16T14:54:34;2.65;;;1.10;;
56114;SDS011;41988;53.020;6.576;2022-09-16T14:57:32;1.33;;;0.70;;
56114;SDS011;41988;53.020;6.576;2022-09-16T15:00:23;6.65;;;1.30;;
56114;SDS011;41988;53.020;6.576;2022-09-16T15:03:11;2.67;;;1.15;;
56114;SDS011;41988;53.020;6.576;2022-09-16T15:06:04;3.10;;;0.90;;
56114;SDS011;41988;53.020;6.576;2022-09-16T15:11:46;2.97;;;0.90;;
56114;SDS011;41988;53.020;6.576;2022-09-16T15:14:32;1.42;;;0.60;;
56114;SDS011;41988;53.020;6.576;2022-09-16T15:17:20;3.78;;;0.85;;
56114;SDS011;41988;53.020;6.576;2022-09-16T15:20:16;3.65;;;1.65;;
56114;SDS011;41988;53.020;6.576;2022-09-16T15:23:02;1.38;;;0.65;;
56114;SDS011;41988;53.020;6.576;2022-09-16T15:25:53;2.20;;;0.60;;
56114;SDS011;41988;53.020;6.576;2022-09-16T15:28:52;2.22;;;0.70;;
56114;SDS011;41988;53.020;6.576;2022-09-16T15:31:38;0.70;;;0.52;;
56114;SDS011;41988;53.020;6.576;2022-09-16T15:34:23;0.50;;;0.50;;
56114;SDS011;41988;53.020;6.576;2022-09-16T15:37:28;0.65;;;0.60;;
56114;SDS011;41988;53.020;6.576;2022-09-16T15:43:11;0.50;;;0.50;;
56114;SDS011;41988;53.020;6.576;2022-09-16T15:45:58;0.82;;;0.60;;
56114;SDS011;41988;53.020;6.576;2022-09-16T15:48:49;0.45;;;0.45;;
56114;SDS011;41988;53.020;6.576;2022-09-16T15:51:38;0.50;;;0.50;;
56114;SDS011;41988;53.020;6.576;2022-09-16T16:00:14;1.20;;;0.70;;
56114;SDS011;41988;53.020;6.576;2022-09-16T16:02:59;2.60;;;0.70;;
56114;SDS011;41988;53.020;6.576;2022-09-16T16:05:51;0.65;;;0.60;;
56114;SDS011;41988;53.020;6.576;2022-09-16T16:08:40;0.57;;;0.57;;
56114;SDS011;41988;53.020;6.576;2022-09-16T16:11:27;1.17;;;0.70;;
56114;SDS011;41988;53.020;6.576;2022-09-16T16:14:13;1.13;;;0.70;;
56114;SDS011;41988;53.020;6.576;2022-09-16T16:17:01;1.00;;;0.63;;
56114;SDS011;41988;53.020;6.576;2022-09-16T16:19:47;0.57;;;0.57;;
56114;SDS011;41988;53.020;6.576;2022-09-16T16:22:32;0.75;;;0.60;;
56114;SDS011;41988;53.020;6.576;2022-09-16T16:25:17;0.77;;;0.60;;
56114;SDS011;41988;53.020;6.576;2022-09-16T16:28:02;2.28;;;0.77;;
56114;SDS011;41988;53.020;6.576;2022-09-16T16:30:46;2.08;;;0.70;;
56114;SDS011;41988;53.020;6.576;2022-09-16T16:33:31;2.92;;;0.80;;
56114;SDS011;41988;53.020;6.576;2022-09-16T16:36:16;0.50;;;0.50;;
56114;SDS011;41988;53.020;6.576;2022-09-16T16:39:01;1.00;;;0.60;;
56114;SDS011;41988;53.020;6.576;2022-09-16T16:41:45;2.05;;;0.80;;
56114;SDS011;41988;53.020;6.576;2022-09-16T16:44:30;1.48;;;0.57;;
56114;SDS011;41988;53.020;6.576;2022-09-16T16:47:15;3.78;;;0.93;;
56114;SDS011;41988;53.020;6.576;2022-09-16T16:50:00;0.73;;;0.60;;
56114;SDS011;41988;53.020;6.576;2022-09-16T16:52:48;1.67;;;0.80;;
56114;SDS011;41988;53.020;6.576;2022-09-16T16:55:33;1.10;;;0.63;;
56114;SDS011;41988;53.020;6.576;2022-09-16T16:58:17;4.22;;;0.95;;
56114;SDS011;41988;53.020;6.576;2022-09-16T17:01:06;2.97;;;0.80;;
56114;SDS011;41988;53.020;6.576;2022-09-16T17:03:51;3.30;;;0.80;;
56114;SDS011;41988;53.020;6.576;2022-09-16T17:06:36;0.50;;;0.50;;
56114;SDS011;41988;53.020;6.576;2022-09-16T17:09:22;3.83;;;0.75;;
56114;SDS011;41988;53.020;6.576;2022-09-16T17:12:07;1.58;;;1.05;;
56114;SDS011;41988;53.020;6.576;2022-09-16T17:14:52;2.30;;;0.77;;
56114;SDS011;41988;53.020;6.576;2022-09-16T17:17:36;2.78;;;0.70;;
56114;SDS011;41988;53.020;6.576;2022-09-16T17:20:23;1.88;;;0.77;;
56114;SDS011;41988;53.020;6.576;2022-09-16T17:23:08;2.72;;;0.80;;
56114;SDS011;41988;53.020;6.576;2022-09-16T17:25:52;2.30;;;0.85;;
56114;SDS011;41988;53.020;6.576;2022-09-16T17:28:37;1.75;;;0.68;;
56114;SDS011;41988;53.020;6.576;2022-09-16T17:31:24;1.70;;;0.85;;
56114;SDS011;41988;53.020;6.576;2022-09-16T17:34:10;5.30;;;0.82;;
56114;SDS011;41988;53.020;6.576;2022-09-16T17:36:55;3.72;;;1.10;;
56114;SDS011;41988;53.020;6.576;2022-09-16T17:42:13;2.17;;;0.88;;
56114;SDS011;41988;53.020;6.576;2022-09-16T17:44:57;3.75;;;1.15;;
56114;SDS011;41988;53.020;6.576;2022-09-16T17:47:43;1.45;;;0.70;;
56114;SDS011;41988;53.020;6.576;2022-09-16T17:50:27;1.42;;;0.70;;
56114;SDS011;41988;53.020;6.576;2022-09-16T17:53:12;3.05;;;0.80;;
56114;SDS011;41988;53.020;6.576;2022-09-16T17:56:00;2.60;;;1.08;;
56114;SDS011;41988;53.020;6.576;2022-09-16T17:58:45;2.13;;;0.88;;
56114;SDS011;41988;53.020;6.576;2022-09-16T18:01:30;1.30;;;1.13;;
56114;SDS011;41988;53.020;6.576;2022-09-16T18:04:15;2.22;;;1.05;;
56114;SDS011;41988;53.020;6.576;2022-09-16T18:07:02;1.13;;;1.00;;
56114;SDS011;41988;53.020;6.576;2022-09-16T18:09:46;2.35;;;0.80;;
56114;SDS011;41988;53.020;6.576;2022-09-16T18:12:31;2.58;;;0.70;;
56114;SDS011;41988;53.020;6.576;2022-09-16T18:15:15;4.15;;;1.10;;
56114;SDS011;41988;53.020;6.576;2022-09-16T18:18:00;3.05;;;0.95;;
56114;SDS011;41988;53.020;6.576;2022-09-16T18:20:53;4.47;;;1.15;;
56114;SDS011;41988;53.020;6.576;2022-09-16T18:23:39;10.10;;;1.75;;
56114;SDS011;41988;53.020;6.576;2022-09-16T18:26:25;9.38;;;1.70;;
56114;SDS011;41988;53.020;6.576;2022-09-16T18:29:11;7.03;;;1.63;;
56114;SDS011;41988;53.020;6.576;2022-09-16T18:31:55;10.50;;;2.40;;
56114;SDS011;41988;53.020;6.576;2022-09-16T18:34:41;11.45;;;2.20;;
56114;SDS011;41988;53.020;6.576;2022-09-16T18:37:26;8.80;;;1.83;;
56114;SDS011;41988;53.020;6.576;2022-09-16T18:40:11;7.68;;;1.83;;
56114;SDS011;41988;53.020;6.576;2022-09-16T18:42:56;13.95;;;2.22;;
56114;SDS011;41988;53.020;6.576;2022-09-16T18:45:40;13.65;;;2.30;;
56114;SDS011;41988;53.020;6.576;2022-09-16T18:48:25;13.60;;;3.00;;
56114;SDS011;41988;53.020;6.576;2022-09-16T18:51:52;13.48;;;2.03;;
56114;SDS011;41988;53.020;6.576;2022-09-16T18:54:19;10.48;;;1.88;;
56114;SDS011;41988;53.020;6.576;2022-09-16T18:57:07;13.15;;;2.20;;
56114;SDS011;41988;53.020;6.576;2022-09-16T18:59:52;16.38;;;2.97;;
56114;SDS011;41988;53.020;6.576;2022-09-16T19:02:36;17.10;;;2.53;;
56114;SDS011;41988;53.020;6.576;2022-09-16T19:05:21;14.75;;;2.90;;
56114;SDS011;41988;53.020;6.576;2022-09-16T19:08:05;11.82;;;2.63;;
56114;SDS011;41988;53.020;6.576;2022-09-16T19:10:50;8.15;;;2.13;;
56114;SDS011;41988;53.020;6.576;2022-09-16T19:13:35;8.95;;;2.42;;
56114;SDS011;41988;53.020;6.576;2022-09-16T19:16:21;7.22;;;1.67;;
56114;SDS011;41988;53.020;6.576;2022-09-16T19:19:07;9.75;;;3.42;;
56114;SDS011;41988;53.020;6.576;2022-09-16T19:21:51;8.18;;;1.50;;
56114;SDS011;41988;53.020;6.576;2022-09-16T19:24:36;8.68;;;2.13;;
56114;SDS011;41988;53.020;6.576;2022-09-16T19:27:21;11.57;;;3.00;;
56114;SDS011;41988;53.020;6.576;2022-09-16T19:30:05;13.77;;;2.08;;
56114;SDS011;41988;53.020;6.576;2022-09-16T19:32:50;9.90;;;1.98;;
56114;SDS011;41988;53.020;6.576;2022-09-16T19:35:35;7.30;;;1.48;;
56114;SDS011;41988;53.020;6.576;2022-09-16T19:38:19;8.10;;;1.27;;